Weather at Charles de Gaulle International Airport

Public forecast

Using degrees Celsius for public forecast. Weather courtesy of forecast.io.

Current aviation weather report (METAR) for Charles de Gaulle International Airport

Retrieved 2021/01/28 07:30 UTC (17 minutes ago):

LFPG 280730Z 24014KT 8000 -RA BKN009 BKN018 11/10 Q1005 TEMPO 4000 RA BKN004

Aviation forecast (TAF) for Charles de Gaulle International Airport

Retrieved 2021/01/28 06:22 UTC (1 hour ago):

TAF LFPG 280500Z 2806/2912 23015G25KT 9999 BKN009 TX13/2815Z TN08/2907Z PROB40 TEMPO 2806/2808 4000 RA BKN004 BKN005TCU TEMPO 2811/2817 BKN012 BECMG 2817/2819 23010KT PROB40 TEMPO 2900/2903 3500 RA BKN004 BECMG 2900/2902 25015G30KT BECMG 2903/2905 SCT025